Terminal Aerodrome Forecast
Issued by NWS

Home | Current Version | Previous Version | Text Only | Print | Product List | Glossary On
Versions: 1 2 3 4 5 6 7 8 9 10 11 12 13 14 15 16 17
000
FTUS46 KSEW 171737
TAFHQM
TAF
KHQM 171737Z 1718/1818 26012G20KT P6SM SCT015 BKN040
      TEMPO 1718/1719 BKN020
     FM172000 26012KT P6SM SCT035 SCT250
     FM180100 VRB03KT P6SM FEW040 BKN200
     FM180900 09008KT P6SM OVC040
     FM181200 09012KT P6SM -RA OVC030
     FM181500 14020G30KT 4SM -RA SCT015 OVC022=

USA.gov is the U.S. government's official web portal to all federal, state and local government web resources and services.